Meteorología y climatología de Navarra
Datos de la estación - Meteo Navarra

Estación de Bardenas (El Yugo) GN

Altitud 486 m.


Datos desde el 11/01/2019 hasta el 12/01/2019 en horario solar
Los datos son PROVISIONALES

Anterior Página 1 de 1 Siguiente Descargar: Formato para Excel 2000 o superior   Formato csv   Formato para OpenOffice Calc
Fecha Temperatura Humedad relativa Radiación global Insolación Precipitación Velocidad viento 10 m Velocidad viento 10 m Dirección viento 10 m
ºC % W/m² s l/m² m/s km/h º
11/01/2019 0:00 -0.3 66 0.0 0 0.0 8.3 30.0 327
11/01/2019 0:10 -0.2 66 0.0 0 0.0 8.8 31.8 329
11/01/2019 0:20 -0.0 66 0.0 0 0.0 9.1 32.8 336
11/01/2019 0:30 -0.1 66 0.0 0 0.0 7.9 28.4 334
11/01/2019 0:40 -0.3 67 0.0 0 0.0 7.3 26.1 336
11/01/2019 0:50 -0.4 68 0.0 0 0.0 7.0 25.1 340
11/01/2019 1:00 -0.3 68 0.0 0 0.0 7.9 28.3 343
11/01/2019 1:10 -0.2 68 0.0 0 0.0 8.3 30.0 342
11/01/2019 1:20 -0.2 69 0.0 0 0.0 7.5 27.0 342
11/01/2019 1:30 -0.2 69 0.0 0 0.0 7.9 28.5 338
11/01/2019 1:40 -0.1 69 0.0 0 0.0 8.2 29.4 338
11/01/2019 1:50 -0.1 70 0.0 0 0.0 9.2 33.2 341
11/01/2019 2:00 -0.0 70 0.0 0 0.0 8.9 32.1 337
11/01/2019 2:10 -0.2 71 0.0 0 0.0 9.3 33.5 335
11/01/2019 2:20 -0.2 72 0.0 0 0.0 9.7 34.8 338
11/01/2019 2:30 -0.3 72 0.0 0 0.0 9.5 34.1 329
11/01/2019 2:40 -0.3 73 0.0 0 0.0 9.5 34.1 336
11/01/2019 2:50 -0.4 73 0.0 0 0.0 9.9 35.5 332
11/01/2019 3:00 -0.4 74 0.0 0 0.0 10.0 36.0 337
11/01/2019 3:10 -0.4 74 0.0 0 0.0 10.5 37.7 338
11/01/2019 3:20 -0.3 73 0.0 0 0.0 10.7 38.5 338
11/01/2019 3:30 -0.5 74 0.0 0 0.0 9.9 35.5 334
11/01/2019 3:40 -0.5 74 0.0 0 0.0 9.9 35.5 334
11/01/2019 3:50 -0.5 74 0.0 0 0.0 8.7 31.4 333
11/01/2019 4:00 -0.5 73 0.0 0 0.0 8.2 29.5 323
11/01/2019 4:10 -0.5 73 0.0 0 0.0 8.3 29.8 315
11/01/2019 4:20 -0.7 74 0.0 0 0.0 8.4 30.1 312
11/01/2019 4:30 -0.7 73 0.0 0 0.0 9.3 33.5 314
11/01/2019 4:40 -0.7 73 0.0 0 0.0 9.4 33.8 315
11/01/2019 4:50 -0.5 71 0.0 0 0.0 9.2 33.2 317
11/01/2019 5:00 -0.5 71 0.0 0 0.0 8.8 31.6 318
11/01/2019 5:10 -0.4 71 0.0 0 0.0 8.3 30.0 324
11/01/2019 5:20 -0.4 70 0.0 0 0.0 9.9 35.6 329
11/01/2019 5:30 -0.4 70 0.0 0 0.0 11.3 40.6 333
11/01/2019 5:40 -0.5 71 0.0 0 0.0 11.2 40.3 332
11/01/2019 5:50 -0.6 70 0.0 0 0.0 10.5 37.8 327
11/01/2019 6:00 -0.7 71 0.0 0 0.0 9.5 34.1 330
11/01/2019 6:10 -0.8 71 0.0 0 0.0 9.1 32.9 326
11/01/2019 6:20 -0.7 71 0.0 0 0.0 9.5 34.2 322
11/01/2019 6:30 -0.6 70 0.0 0 0.0 9.5 34.3 321
11/01/2019 6:40 -0.6 70 0.0 0 0.0 9.2 33.2 326
11/01/2019 6:50 -0.6 70 0.0 0 0.0 9.0 32.2 321
11/01/2019 7:00 -0.5 69 0.0 0 0.0 8.4 30.2 318
11/01/2019 7:10 -0.4 67 0.0 0 0.0 9.3 33.5 317
11/01/2019 7:20 -0.3 66 0.0 0 0.0 9.5 34.2 318
11/01/2019 7:30 -0.2 64 0.0 0 0.0 10.3 37.2 316
11/01/2019 7:40 -0.2 63 0.0 0 0.0 10.4 37.4 315
11/01/2019 7:50 -0.1 64 16.5 0 0.0 11.0 39.7 312
11/01/2019 8:00 -0.1 64 36.8 420 0.0 10.4 37.4 311
11/01/2019 8:10 -0.0 64 61.0 600 0.0 10.5 37.7 314
11/01/2019 8:20 -0.0 64 85.8 600 0.0 9.7 34.9 315
11/01/2019 8:30 0.1 64 110.3 600 0.0 9.0 32.4 314
11/01/2019 8:40 0.1 64 100.2 600 0.0 9.7 34.8 316
11/01/2019 8:50 0.4 62 158.1 600 0.0 10.0 35.9 315
11/01/2019 9:00 0.7 61 184.8 600 0.0 9.9 35.5 314
11/01/2019 9:10 0.9 59 212.1 600 0.0 9.7 35.0 314
11/01/2019 9:20 1.1 58 231.5 600 0.0 9.4 33.9 318
11/01/2019 9:30 1.4 56 258.5 600 0.0 9.4 34.0 321
11/01/2019 9:40 1.7 55 284.5 600 0.0 9.5 34.3 326
11/01/2019 9:50 1.9 53 304.2 600 0.0 9.2 33.1 329
11/01/2019 10:00 2.2 52 326.3 600 0.0 9.1 32.6 335
11/01/2019 10:10 2.4 51 346.5 600 0.0 9.6 34.4 334
11/01/2019 10:20 2.6 51 364.4 600 0.0 10.1 36.5 339
11/01/2019 10:30 2.8 50 382.3 600 0.0 10.3 36.9 337
11/01/2019 10:40 3.0 50 398.2 600 0.0 9.8 35.2 335
11/01/2019 10:50 3.4 50 411.5 600 0.0 9.0 32.4 339
11/01/2019 11:00 3.6 50 424.2 600 0.0 9.1 32.7 328
11/01/2019 11:10 3.8 50 435.4 600 0.0 9.6 34.6 328
11/01/2019 11:20 3.9 50 444.9 600 0.0 9.9 35.6 321
11/01/2019 11:30 4.0 50 454.2 600 0.0 11.0 39.5 323
11/01/2019 11:40 4.1 49 461.4 600 0.0 11.4 41.0 327
11/01/2019 11:50 4.1 49 466.4 600 0.0 11.4 41.1 329
11/01/2019 12:00 4.4 48 469.3 600 0.0 11.9 42.9 327
11/01/2019 12:10 4.4 47 471.2 600 0.0 12.4 44.8 332
11/01/2019 12:20 4.5 47 471.5 600 0.0 12.5 45.1 338
11/01/2019 12:30 4.7 47 470.2 600 0.0 13.6 48.9 346
11/01/2019 12:40 4.7 46 467.6 600 0.0 13.8 49.7 351
11/01/2019 12:50 4.9 46 462.5 600 0.0 13.1 47.3 350
11/01/2019 13:00 4.9 45 456.0 600 0.0 13.5 48.5 351
11/01/2019 13:10 5.0 44 447.6 600 0.0 12.3 44.3 351
11/01/2019 13:20 5.0 44 438.2 600 0.0 11.5 41.3 343
11/01/2019 13:30 5.2 43 427.5 600 0.0 9.3 33.6 332
11/01/2019 13:40 5.3 43 414.6 600 0.0 8.5 30.7 328
11/01/2019 13:50 5.3 42 400.9 600 0.0 9.3 33.3 331
11/01/2019 14:00 5.3 42 385.9 600 0.0 8.4 30.1 328
11/01/2019 14:10 5.3 43 370.0 600 0.0 9.0 32.4 327
11/01/2019 14:20 5.2 43 353.3 600 0.0 10.2 36.8 332
11/01/2019 14:30 5.1 44 335.3 600 0.0 12.4 44.6 339
11/01/2019 14:40 5.1 45 314.6 600 0.0 12.5 45.0 347
11/01/2019 14:50 5.0 46 292.3 600 0.0 13.9 50.0 348
11/01/2019 15:00 4.9 47 269.5 600 0.0 14.4 51.8 348
11/01/2019 15:10 4.9 47 245.3 600 0.0 14.2 51.0 348
11/01/2019 15:20 4.9 47 220.2 600 0.0 13.1 47.1 348
11/01/2019 15:30 4.9 48 195.1 600 0.0 13.2 47.5 350
11/01/2019 15:40 4.8 48 170.1 600 0.0 13.4 48.4 353
11/01/2019 15:50 4.7 49 145.0 600 0.0 14.5 52.1 352
11/01/2019 16:00 4.6 50 119.8 600 0.0 14.7 53.0 354
11/01/2019 16:10 4.5 51 94.0 600 0.0 14.5 52.2 356
11/01/2019 16:20 4.4 51 68.8 600 0.0 14.2 51.1 351
11/01/2019 16:30 4.2 52 43.1 558 0.0 13.4 48.2 350
11/01/2019 16:40 4.1 53 26.9 178 0.0 13.1 47.2 351
11/01/2019 16:50 3.9 55 5.2 0 0.0 12.4 44.7 350
11/01/2019 17:00 3.7 55 0.0 0 0.0 13.0 46.9 349
11/01/2019 17:10 3.7 56 0.0 0 0.0 13.0 46.7 347
11/01/2019 17:20 3.5 57 0.0 0 0.0 12.5 44.9 340
11/01/2019 17:30 3.3 57 0.0 0 0.0 12.0 43.1 338
11/01/2019 17:40 3.3 57 0.0 0 0.0 11.8 42.5 335
11/01/2019 17:50 3.2 58 0.0 0 0.0 11.6 41.7 337
11/01/2019 18:00 3.0 59 0.0 0 0.0 11.0 39.7 334
11/01/2019 18:10 2.9 62 0.0 0 0.0 9.9 35.7 336
11/01/2019 18:20 2.9 63 0.0 0 0.0 9.7 35.0 335
11/01/2019 18:30 2.8 63 0.0 0 0.0 9.7 35.0 339
11/01/2019 18:40 2.8 64 0.0 0 0.0 9.3 33.6 337
11/01/2019 18:50 2.7 64 0.0 0 0.0 9.2 33.0 333
11/01/2019 19:00 2.7 65 0.0 0 0.0 8.2 29.7 326
11/01/2019 19:10 2.5 66 0.0 0 0.0 8.1 29.3 321
11/01/2019 19:20 2.5 67 0.0 0 0.0 8.4 30.2 318
11/01/2019 19:30 2.5 67 0.0 0 0.0 8.3 29.8 316
11/01/2019 19:40 2.5 67 0.0 0 0.0 7.9 28.3 314
11/01/2019 19:50 2.5 67 0.0 0 0.0 8.6 31.0 316
11/01/2019 20:00 2.5 68 0.0 0 0.0 8.6 30.9 322
11/01/2019 20:10 2.4 69 0.0 0 0.0 8.4 30.3 333
11/01/2019 20:20 2.3 70 0.0 0 0.0 8.3 29.8 336
11/01/2019 20:30 2.4 71 0.0 0 0.0 8.8 31.6 339
11/01/2019 20:40 2.5 72 0.0 0 0.0 10.3 37.0 340
11/01/2019 20:50 2.7 71 0.0 0 0.0 10.9 39.1 341
11/01/2019 21:00 2.6 73 0.0 0 0.0 10.2 36.9 340
11/01/2019 21:10 2.4 74 0.0 0 0.0 9.6 34.7 340
11/01/2019 21:20 2.3 75 0.0 0 0.0 8.8 31.7 332
11/01/2019 21:30 2.2 77 0.0 0 0.0 7.9 28.4 323
11/01/2019 21:40 2.2 77 0.0 0 0.0 8.0 28.6 318
11/01/2019 21:50 2.3 76 0.0 0 0.0 8.2 29.6 321
11/01/2019 22:00 2.3 77 0.0 0 0.0 7.7 27.6 311
11/01/2019 22:10 2.3 78 0.0 0 0.0 7.9 28.5 312
11/01/2019 22:20 2.4 79 0.0 0 0.0 8.7 31.2 310
11/01/2019 22:30 2.5 80 0.0 0 0.0 8.6 31.0 307
11/01/2019 22:40 2.5 81 0.0 0 0.0 8.6 31.1 309
11/01/2019 22:50 2.6 80 0.0 0 0.0 8.0 28.9 304
11/01/2019 23:00 2.8 79 0.0 0 0.0 8.3 29.7 301
11/01/2019 23:10 2.9 79 0.0 0 0.0 7.8 28.2 297
11/01/2019 23:20 3.0 79 0.0 0 0.0 7.8 27.9 299
11/01/2019 23:30 2.7 82 0.0 0 0.0 7.0 25.0 299
11/01/2019 23:40 2.7 84 0.0 0 0.0 7.0 25.1 303
11/01/2019 23:50 2.8 84 0.0 0 0.0 7.9 28.5 312
Anterior Página 1 de 1 Siguiente

NOTA: Tipo de datos según el color:
   - Valores diarios o 10 minutos correctos
   - Valores diarios calculados a partir de un número de datos 10 minutos menor que 144 y mayor que 120, o de un número de datos semihorarios menor que 48 y mayor que 40 (caso de las estaciones de Riegos de Navarra y del MARM)
   - Valores diez minutos estimados


Contacto        Enlaces        Aviso legal